createdAt,value
2022-10-01T00:04:58.527Z,3.53
2022-10-01T00:10:00.497Z,3.20
2022-10-01T00:15:06.158Z,3.83
2022-10-01T00:20:14.116Z,2.70
2022-10-01T00:25:16.345Z,3.00
2022-10-01T00:30:19.434Z,3.30
2022-10-01T00:35:21.753Z,3.30
2022-10-01T00:40:23.461Z,3.33
2022-10-01T00:45:26.565Z,3.40
2022-10-01T00:50:32.486Z,3.80
2022-10-01T00:55:37.382Z,3.60
2022-10-01T01:00:42.710Z,3.50
2022-10-01T01:05:44.468Z,3.80
2022-10-01T01:10:55.141Z,3.00
2022-10-01T01:16:06.128Z,4.07
2022-10-01T01:21:24.552Z,4.10
2022-10-01T01:26:36.114Z,3.43
2022-10-01T01:31:43.516Z,4.03
2022-10-01T01:36:50.228Z,4.13
2022-10-01T01:41:58.066Z,3.87
2022-10-01T01:47:02.287Z,4.67
2022-10-01T01:52:08.270Z,6.37
2022-10-01T01:57:11.331Z,5.80
2022-10-01T02:02:16.876Z,6.80
2022-10-01T02:07:33.322Z,7.00
2022-10-01T02:12:52.129Z,7.67
2022-10-01T02:18:03.043Z,8.37
2022-10-01T02:23:07.976Z,8.03
2022-10-01T02:28:13.133Z,8.60
2022-10-01T02:33:21.703Z,9.30
2022-10-01T02:38:24.746Z,8.90
2022-10-01T02:43:30.862Z,9.43
2022-10-01T02:48:33.987Z,9.03
2022-10-01T02:53:41.355Z,9.43
2022-10-01T02:58:43.065Z,8.83
2022-10-01T03:03:46.073Z,9.50
2022-10-01T03:08:47.806Z,9.67
2022-10-01T03:13:49.523Z,10.07
2022-10-01T03:18:52.809Z,9.43
2022-10-01T03:23:54.714Z,10.10
2022-10-01T03:28:56.356Z,10.23
2022-10-01T03:33:59.426Z,10.53
2022-10-01T03:39:01.479Z,9.23
2022-10-01T03:44:03.323Z,9.57
2022-10-01T03:49:06.349Z,10.50
2022-10-01T03:54:08.933Z,8.97
2022-10-01T03:59:10.999Z,9.73
2022-10-01T04:04:13.996Z,8.67
2022-10-01T04:09:16.863Z,8.60
2022-10-01T04:14:18.627Z,8.90
2022-10-01T04:19:21.665Z,8.83
2022-10-01T04:24:23.899Z,8.83
2022-10-01T04:29:25.608Z,8.33
2022-10-01T04:34:28.664Z,7.63
2022-10-01T04:39:30.512Z,8.40
2022-10-01T04:44:32.224Z,8.37
2022-10-01T04:49:35.214Z,8.47
2022-10-01T04:54:36.823Z,8.37
2022-10-01T04:59:38.479Z,8.63
2022-10-01T05:04:41.443Z,7.93
2022-10-01T05:09:43.671Z,8.07
2022-10-01T05:14:45.646Z,7.47
2022-10-01T05:19:49.119Z,7.33
2022-10-01T05:24:51.486Z,8.17
2022-10-01T05:29:53.551Z,7.27
2022-10-01T05:34:57.161Z,7.60
2022-10-01T05:39:59.234Z,6.93
2022-10-01T05:45:01.147Z,7.67
2022-10-01T05:50:04.854Z,7.37
2022-10-01T05:55:07.340Z,6.97
2022-10-01T06:00:10.083Z,7.00
2022-10-01T06:05:13.476Z,6.60
2022-10-01T06:10:15.825Z,5.57
2022-10-01T06:15:18.626Z,5.43
2022-10-01T06:20:21.687Z,6.37
2022-10-01T06:25:28.573Z,5.70
2022-10-01T06:30:35.382Z,5.20
2022-10-01T06:35:42.690Z,5.83
2022-10-01T06:40:44.902Z,5.67
2022-10-01T06:45:46.845Z,4.53
2022-10-01T06:50:50.530Z,5.30
2022-10-01T06:55:52.563Z,5.60
2022-10-01T07:00:59.082Z,5.57
2022-10-01T07:06:03.580Z,5.03
2022-10-01T07:11:05.872Z,4.90
2022-10-01T07:16:08.323Z,5.13
2022-10-01T07:21:11.757Z,5.33
2022-10-01T07:26:13.713Z,5.10
2022-10-01T07:31:15.574Z,4.93
2022-10-01T07:36:18.924Z,5.27
2022-10-01T07:41:20.639Z,5.43
2022-10-01T07:46:22.402Z,5.20
2022-10-01T07:51:26.379Z,4.93
2022-10-01T07:56:28.894Z,5.00
2022-10-01T08:01:31.063Z,4.80
2022-10-01T08:06:34.388Z,4.90
2022-10-01T08:11:36.852Z,4.63
2022-10-01T08:16:39.160Z,4.33
2022-10-01T08:21:43.015Z,4.57
2022-10-01T08:26:45.526Z,4.13
2022-10-01T08:31:47.785Z,4.57
2022-10-01T08:36:52.323Z,3.83
2022-10-01T08:42:02.876Z,3.50
2022-10-01T08:47:13.405Z,4.07
2022-10-01T08:52:23.133Z,4.10
2022-10-01T08:57:30.222Z,3.93
2022-10-01T09:02:34.464Z,3.70
2022-10-01T09:07:56.514Z,3.33
2022-10-01T09:13:24.895Z,3.53
2022-10-01T09:18:39.018Z,3.30
2022-10-01T09:23:51.944Z,3.60
2022-10-01T09:28:55.725Z,3.20
2022-10-01T09:34:03.984Z,2.87
2022-10-01T09:39:16.869Z,3.20
2022-10-01T09:44:26.680Z,3.00
2022-10-01T09:49:32.037Z,2.50
2022-10-01T09:54:41.363Z,2.60
2022-10-01T09:59:49.055Z,2.93
2022-10-01T10:04:59.703Z,3.00
2022-10-01T10:10:12.183Z,3.07
2022-10-01T10:15:17.559Z,3.37
2022-10-01T10:20:25.329Z,3.90
2022-10-01T10:25:28.325Z,3.77
2022-10-01T10:30:30.562Z,3.97
2022-10-01T10:35:32.738Z,4.07
2022-10-01T10:40:42.586Z,4.30
2022-10-01T10:45:44.689Z,4.63
2022-10-01T10:50:46.612Z,4.73
2022-10-01T10:55:57.563Z,4.47
2022-10-01T11:01:02.801Z,4.43
2022-10-01T11:06:10.838Z,3.93
2022-10-01T11:11:30.177Z,3.70
2022-10-01T11:16:43.845Z,3.40
2022-10-01T11:21:59.827Z,3.30
2022-10-01T11:27:10.598Z,4.10
2022-10-01T11:32:22.038Z,3.60
2022-10-01T11:37:40.537Z,3.63
2022-10-01T11:42:46.464Z,2.47
2022-10-01T11:47:53.529Z,2.40
2022-10-01T11:53:00.060Z,2.83
2022-10-01T11:58:12.613Z,2.33
2022-10-01T12:03:20.412Z,2.80
2022-10-01T12:08:26.372Z,2.60
2022-10-01T12:13:32.918Z,2.50
2022-10-01T12:18:46.248Z,2.90
2022-10-01T12:23:53.608Z,3.00
2022-10-01T12:29:06.422Z,2.83
2022-10-01T12:34:17.289Z,2.87
2022-10-01T12:39:43.753Z,2.50
2022-10-01T12:45:00.508Z,2.63
2022-10-01T12:50:14.466Z,2.60
2022-10-01T12:55:45.577Z,2.40
2022-10-01T13:01:00.426Z,1.93
2022-10-01T13:06:15.200Z,2.50
2022-10-01T13:11:30.082Z,2.37
2022-10-01T13:16:39.847Z,2.00
2022-10-01T13:21:55.759Z,1.90
2022-10-01T13:27:02.660Z,1.50
2022-10-01T13:32:28.522Z,1.37
2022-10-01T13:37:37.266Z,1.20
2022-10-01T13:42:45.910Z,1.20
2022-10-01T13:47:49.769Z,1.13
2022-10-01T13:52:53.076Z,1.10
2022-10-01T13:58:05.819Z,1.03
2022-10-01T14:03:30.389Z,0.80
2022-10-01T14:08:38.593Z,0.90
2022-10-01T14:13:46.227Z,0.87
2022-10-01T14:18:50.338Z,0.60
2022-10-01T14:23:58.994Z,0.70
2022-10-01T14:29:14.238Z,0.63
2022-10-01T14:34:50.607Z,0.77
2022-10-01T14:40:03.342Z,0.70
2022-10-01T14:45:14.865Z,0.63
2022-10-01T14:50:20.363Z,0.50
2022-10-01T14:55:23.702Z,0.80
2022-10-01T15:00:28.198Z,0.80
2022-10-01T15:05:33.460Z,0.70
2022-10-01T15:10:35.846Z,0.57
2022-10-01T15:15:41.529Z,0.70
2022-10-01T15:20:53.677Z,0.60
2022-10-01T15:25:57.903Z,0.60
2022-10-01T15:31:01.064Z,0.50
2022-10-01T15:36:06.154Z,0.50
2022-10-01T15:41:31.679Z,0.60
2022-10-01T15:46:34.568Z,0.60
2022-10-01T15:51:47.120Z,0.80
2022-10-01T15:56:48.898Z,0.70
2022-10-01T16:01:50.861Z,1.30
2022-10-01T16:06:54.001Z,1.10
2022-10-01T16:11:58.345Z,1.10
2022-10-01T16:17:24.694Z,0.70
2022-10-01T16:22:29.950Z,0.73
2022-10-01T16:27:35.191Z,0.97
2022-10-01T16:32:37.342Z,0.80
2022-10-01T16:37:40.310Z,0.80
2022-10-01T16:42:43.332Z,0.80
2022-10-01T16:47:46.040Z,1.10
2022-10-01T16:52:52.441Z,0.83
2022-10-01T16:57:54.853Z,1.10
2022-10-01T17:02:58.162Z,1.10
2022-10-01T17:08:02.222Z,1.10
2022-10-01T17:13:04.514Z,1.10
2022-10-01T17:18:06.593Z,1.60
2022-10-01T17:23:11.296Z,1.10
2022-10-01T17:28:15.427Z,1.10
2022-10-01T17:33:18.914Z,1.03
2022-10-01T17:38:22.591Z,1.40
2022-10-01T17:43:24.493Z,2.27
2022-10-01T17:48:27.710Z,1.40
2022-10-01T17:53:36.157Z,0.93
2022-10-01T17:58:45.709Z,1.00
2022-10-01T18:03:52.827Z,0.80
2022-10-01T18:08:58.070Z,1.17
2022-10-01T18:14:03.499Z,0.80
2022-10-01T18:24:30.486Z,0.93
2022-10-01T18:29:32.453Z,0.90
2022-10-01T18:34:40.019Z,0.77
2022-10-01T18:39:46.977Z,0.80
2022-10-01T18:44:52.496Z,0.77
2022-10-01T18:50:03.765Z,0.70
2022-10-01T18:55:33.874Z,0.77
2022-10-01T19:00:42.232Z,0.80
2022-10-01T19:06:07.352Z,0.90
2022-10-01T19:11:18.350Z,0.37
2022-10-01T19:16:36.016Z,0.73
2022-10-01T19:21:46.240Z,0.60
2022-10-01T19:26:57.312Z,0.40
2022-10-01T19:32:03.083Z,1.00
2022-10-01T19:37:10.359Z,0.90
2022-10-01T19:42:18.121Z,0.93
2022-10-01T19:47:30.850Z,0.83
2022-10-01T19:52:36.608Z,0.80
2022-10-01T19:57:41.890Z,0.80
2022-10-01T20:02:51.188Z,0.77
2022-10-01T20:07:59.631Z,0.87
2022-10-01T20:13:19.210Z,0.97
2022-10-01T20:18:33.028Z,1.00
2022-10-01T20:23:43.208Z,0.87
2022-10-01T20:28:54.602Z,1.00
2022-10-01T20:34:03.760Z,0.90
2022-10-01T20:39:15.623Z,0.87
2022-10-01T20:44:22.448Z,1.23
2022-10-01T20:49:28.070Z,0.90
2022-10-01T20:54:35.339Z,1.20
2022-10-01T20:59:42.155Z,1.40
2022-10-01T21:04:51.348Z,1.23
2022-10-01T21:09:58.069Z,1.53
2022-10-01T21:15:02.266Z,1.20
2022-10-01T21:20:23.774Z,1.57
2022-10-01T21:25:41.757Z,1.60
2022-10-01T21:31:02.109Z,1.60
2022-10-01T21:36:11.326Z,1.47
2022-10-01T21:41:28.429Z,1.43
2022-10-01T21:46:39.206Z,1.10
2022-10-01T21:51:57.545Z,1.50
2022-10-01T21:57:09.528Z,1.20
2022-10-01T22:02:27.761Z,1.33
2022-10-01T22:07:36.206Z,1.10
2022-10-01T22:12:41.298Z,1.40
2022-10-01T22:17:46.672Z,1.40
2022-10-01T22:22:52.140Z,1.50
2022-10-01T22:27:59.757Z,1.73
2022-10-01T22:33:08.535Z,1.30
2022-10-01T22:38:16.682Z,1.40
2022-10-01T22:43:18.585Z,1.23
2022-10-01T22:48:37.941Z,1.50
2022-10-01T22:53:56.923Z,1.37
2022-10-01T22:59:09.327Z,1.50
2022-10-01T23:04:33.195Z,1.20
2022-10-01T23:09:41.270Z,1.37
2022-10-01T23:14:55.812Z,1.63
2022-10-01T23:20:08.443Z,1.23
2022-10-01T23:25:28.761Z,1.40
2022-10-01T23:30:37.160Z,1.50
2022-10-01T23:35:51.280Z,1.70
2022-10-01T23:40:56.392Z,1.50
2022-10-01T23:46:04.092Z,1.27
2022-10-01T23:51:13.027Z,1.40
2022-10-01T23:56:19.204Z,1.50
